createdAt,value
2023-04-02T00:04:04.913Z,8.4975
2023-04-02T00:04:50.022Z,15.6339
2023-04-02T00:05:52.067Z,14.4419
2023-04-02T00:06:54.563Z,11.6670
2023-04-02T00:07:56.866Z,13.6285
2023-04-02T00:08:58.939Z,8.3349
2023-04-02T00:10:00.993Z,9.2141
2023-04-02T00:13:05.084Z,15.5841
2023-04-02T00:14:07.380Z,11.5389
2023-04-02T00:18:34.586Z,14.0328
2023-04-02T00:19:19.637Z,16.3993
2023-04-02T00:20:24.444Z,12.4063
2023-04-02T00:21:23.133Z,13.7336
2023-04-02T00:22:25.510Z,13.2969
2023-04-02T00:23:27.507Z,11.8451
2023-04-02T00:24:29.583Z,13.8258
2023-04-02T00:27:07.914Z,11.3171
2023-04-02T00:27:53.144Z,13.2871
2023-04-02T00:28:55.135Z,11.5069
2023-04-02T00:29:57.519Z,13.4209
2023-04-02T00:30:59.754Z,11.6144
2023-04-02T00:32:01.830Z,19.2477
2023-04-02T00:33:04.292Z,17.5447
2023-04-02T00:38:46.800Z,16.0823
2023-04-02T00:39:36.740Z,10.9686
2023-04-02T00:40:39.011Z,8.7017
2023-04-02T00:41:41.067Z,12.5971
2023-04-02T00:42:43.129Z,11.2579
2023-04-02T00:43:45.190Z,8.5749
2023-04-02T00:44:47.245Z,9.9769
2023-04-02T00:45:49.482Z,9.5669
2023-04-02T00:48:25.531Z,9.3419
2023-04-02T00:49:27.705Z,7.9294
2023-04-02T00:50:30.124Z,8.5528
2023-04-02T00:51:32.148Z,5.6303
2023-04-02T00:52:34.427Z,6.7545
2023-04-02T00:53:36.743Z,6.2333
2023-04-02T00:54:38.914Z,7.7687
2023-04-02T00:55:40.982Z,6.0096
2023-04-02T00:56:43.422Z,4.1997
2023-04-02T00:57:45.429Z,6.3813
2023-04-02T00:58:47.487Z,5.9504
2023-04-02T00:59:49.934Z,5.2329
2023-04-02T01:00:51.964Z,5.5289
2023-04-02T01:01:54.029Z,3.4418
2023-04-02T01:02:56.338Z,4.8847
2023-04-02T01:03:58.468Z,3.4962
2023-04-02T01:05:00.928Z,2.1525
2023-04-02T01:06:03.193Z,3.4152
2023-04-02T01:07:05.244Z,4.3166
2023-04-02T01:08:07.281Z,4.4925
2023-04-02T01:09:09.295Z,6.0108
2023-04-02T01:10:11.324Z,7.2948
2023-04-02T01:11:13.427Z,8.3966
2023-04-02T01:12:15.654Z,7.4105
2023-04-02T01:13:17.696Z,6.1076
2023-04-02T01:14:19.726Z,3.5026
2023-04-02T01:15:21.758Z,2.8591
2023-04-02T01:16:23.872Z,6.8867
2023-04-02T01:17:26.149Z,6.7371
2023-04-02T01:18:28.284Z,6.6546
2023-04-02T01:19:30.254Z,4.1373
2023-04-02T01:20:32.274Z,5.4285
2023-04-02T01:21:34.331Z,5.3106
2023-04-02T01:22:36.681Z,1.7415
2023-04-02T01:23:38.705Z,4.1439
2023-04-02T01:24:40.821Z,6.6532
2023-04-02T01:25:42.838Z,3.4978
2023-04-02T01:26:44.889Z,4.4363
2023-04-02T01:27:46.918Z,4.8994
2023-04-02T01:28:48.936Z,4.8455
2023-04-02T01:29:51.053Z,5.7775
2023-04-02T01:30:53.081Z,5.4218
2023-04-02T01:31:55.221Z,6.3628
2023-04-02T01:32:57.274Z,5.5320
2023-04-02T01:33:59.287Z,6.2452
2023-04-02T01:36:29.799Z,6.2176
2023-04-02T01:37:32.027Z,5.0383
2023-04-02T01:38:34.100Z,6.6511
2023-04-02T01:39:36.094Z,5.3087
2023-04-02T01:40:38.434Z,4.6524
2023-04-02T01:41:40.482Z,4.3137
2023-04-02T01:42:42.552Z,6.9426
2023-04-02T01:43:44.599Z,6.4737
2023-04-02T01:44:46.684Z,4.7241
2023-04-02T01:45:49.006Z,3.5591
2023-04-02T01:46:51.155Z,6.0428
2023-04-02T01:47:53.372Z,3.7220
2023-04-02T01:48:55.460Z,4.4825
2023-04-02T01:49:57.523Z,9.3363
2023-04-02T01:50:59.738Z,8.2843
2023-04-02T01:52:01.756Z,12.0503
2023-04-02T01:53:04.097Z,9.1782
2023-04-02T01:54:06.155Z,8.6315
2023-04-02T01:55:08.194Z,8.4029
2023-04-02T01:56:10.232Z,10.5026
2023-04-02T01:57:12.500Z,8.3421
2023-04-02T01:58:14.609Z,9.8827
2023-04-02T01:59:16.682Z,9.6778
2023-04-02T02:00:18.926Z,12.6765
2023-04-02T02:01:21.060Z,10.1532
2023-04-02T02:02:23.242Z,9.2566
2023-04-02T02:03:25.320Z,8.0397
2023-04-02T02:04:27.627Z,6.8825
2023-04-02T02:05:29.860Z,6.1397
2023-04-02T02:06:31.911Z,2.2758
2023-04-02T02:07:33.939Z,5.4849
2023-04-02T02:08:36.032Z,2.1005
2023-04-02T02:09:38.071Z,3.6155
2023-04-02T02:10:40.283Z,3.4315
2023-04-02T02:11:42.321Z,1.7512
2023-04-02T02:12:44.348Z,2.7430
2023-04-02T02:13:46.427Z,3.7355
2023-04-02T02:14:48.484Z,1.0496
2023-04-02T02:15:50.537Z,0.7000
2023-04-02T02:16:52.609Z,3.6747
2023-04-02T02:17:54.734Z,4.7252
2023-04-02T02:18:56.798Z,5.1874
2023-04-02T02:19:58.906Z,4.2569
2023-04-02T02:21:00.930Z,4.5493
2023-04-02T02:22:02.986Z,1.8670
2023-04-02T02:23:05.040Z,2.1000
2023-04-02T02:24:07.249Z,0.7003
2023-04-02T02:25:09.300Z,2.1528
2023-04-02T02:26:11.389Z,5.1936
2023-04-02T02:27:13.421Z,4.6649
2023-04-02T02:28:15.493Z,4.1422
2023-04-02T02:29:17.592Z,3.9664
2023-04-02T02:30:19.665Z,5.3040
2023-04-02T02:31:21.718Z,7.7013
2023-04-02T02:32:23.802Z,6.4752
2023-04-02T02:33:25.914Z,6.1838
2023-04-02T02:34:27.993Z,5.2456
2023-04-02T02:35:30.051Z,10.2010
2023-04-02T02:36:32.103Z,8.3411
2023-04-02T02:37:34.170Z,5.6006
2023-04-02T02:38:36.244Z,5.9499
2023-04-02T02:39:38.281Z,5.2517
2023-04-02T02:40:40.339Z,3.6740
2023-04-02T02:41:42.416Z,4.7848
2023-04-02T02:42:44.478Z,5.5972
2023-04-02T02:43:46.522Z,8.1687
2023-04-02T02:44:49.326Z,7.3830
2023-04-02T02:45:51.410Z,7.4063
2023-04-02T02:46:53.465Z,5.9506
2023-04-02T02:47:55.743Z,5.2296
2023-04-02T02:48:57.791Z,5.4828
2023-04-02T02:49:59.843Z,7.0590
2023-04-02T02:51:01.867Z,8.0534
2023-04-02T02:52:03.906Z,6.8854
2023-04-02T02:53:06.160Z,5.4664
2023-04-02T02:54:08.275Z,6.7635
2023-04-02T02:55:10.385Z,10.1468
2023-04-02T02:56:12.400Z,5.1319
2023-04-02T02:57:14.462Z,4.9602
2023-04-02T02:58:16.516Z,4.0241
2023-04-02T02:59:18.581Z,2.5095
2023-04-02T03:00:20.596Z,5.2524
2023-04-02T03:01:22.714Z,7.2940
2023-04-02T03:02:24.880Z,8.2682
2023-04-02T03:03:27.079Z,6.3512
2023-04-02T03:04:29.217Z,12.7920
2023-04-02T03:05:31.327Z,8.9254
2023-04-02T03:06:33.358Z,5.4215
2023-04-02T03:07:35.424Z,4.5518
2023-04-02T03:08:37.451Z,3.6747
2023-04-02T03:09:39.477Z,5.4866
2023-04-02T03:10:41.575Z,5.9519
2023-04-02T03:11:43.576Z,6.8845
2023-04-02T03:12:45.607Z,9.8040
2023-04-02T03:13:47.653Z,7.7033
2023-04-02T03:14:49.679Z,8.1687
2023-04-02T03:15:51.754Z,7.1791
2023-04-02T03:16:53.793Z,6.7055
2023-04-02T03:17:56.117Z,3.6056
2023-04-02T03:18:58.103Z,2.7419
2023-04-02T03:20:00.189Z,4.9026
2023-04-02T03:21:02.254Z,6.0692
2023-04-02T03:22:04.274Z,3.1477
2023-04-02T03:23:06.317Z,4.0851
2023-04-02T03:24:08.366Z,2.6263
2023-04-02T03:25:10.430Z,1.9254
2023-04-02T03:26:12.544Z,0.3499
2023-04-02T03:27:15.289Z,0.2306
2023-04-02T03:28:17.350Z,3.5013
2023-04-02T03:29:19.401Z,3.8498
2023-04-02T03:30:21.673Z,2.6162
2023-04-02T03:31:23.834Z,1.4583
2023-04-02T03:32:25.899Z,5.0107
2023-04-02T03:33:27.937Z,4.8418
2023-04-02T03:34:29.961Z,5.4847
2023-04-02T03:35:32.191Z,6.5191
2023-04-02T03:36:34.269Z,3.2089
2023-04-02T03:37:36.515Z,5.2318
2023-04-02T03:38:38.584Z,4.9572
2023-04-02T03:39:40.633Z,3.9083
2023-04-02T03:40:42.685Z,3.1506
2023-04-02T03:41:44.750Z,3.5584
2023-04-02T03:42:46.799Z,3.9089
2023-04-02T03:43:48.859Z,2.9170
2023-04-02T03:44:51.226Z,5.1657
2023-04-02T03:45:53.288Z,3.6755
2023-04-02T03:46:55.413Z,5.5416
2023-04-02T03:47:57.505Z,4.5442
2023-04-02T03:48:59.535Z,5.4264
2023-04-02T03:50:01.609Z,6.0074
2023-04-02T03:51:03.658Z,5.6577
2023-04-02T03:52:05.723Z,5.4834
2023-04-02T03:53:07.928Z,5.1785
2023-04-02T03:54:09.983Z,4.8425
2023-04-02T03:55:12.021Z,7.0033
2023-04-02T03:56:14.100Z,7.3503
2023-04-02T03:57:16.232Z,6.2985
2023-04-02T03:58:18.335Z,6.0636
2023-04-02T03:59:20.292Z,5.9480
2023-04-02T04:00:22.343Z,8.3451
2023-04-02T04:01:24.349Z,8.9311
2023-04-02T04:02:26.584Z,7.7039
2023-04-02T04:03:28.683Z,5.0560
2023-04-02T04:04:30.786Z,8.4622
2023-04-02T04:05:33.101Z,8.8064
2023-04-02T04:06:35.273Z,8.6903
2023-04-02T04:07:37.496Z,6.8145
2023-04-02T04:08:39.517Z,5.8895
2023-04-02T04:09:41.556Z,9.9204
2023-04-02T04:10:43.637Z,9.1614
2023-04-02T04:11:45.707Z,8.5781
2023-04-02T04:12:47.766Z,10.4920
2023-04-02T04:13:49.799Z,8.0524
2023-04-02T04:14:51.871Z,6.3590
2023-04-02T04:15:53.895Z,3.8504
2023-04-02T04:16:55.979Z,3.9683
2023-04-02T04:17:58.070Z,3.3825
2023-04-02T04:19:00.065Z,8.9246
2023-04-02T04:20:02.135Z,6.6531
2023-04-02T04:21:04.144Z,4.7253
2023-04-02T04:22:06.180Z,5.7780
2023-04-02T04:23:08.269Z,7.0608
2023-04-02T04:24:10.318Z,7.2321
2023-04-02T04:25:12.644Z,6.3859
2023-04-02T04:26:14.687Z,7.4713
2023-04-02T04:27:16.709Z,7.4717
2023-04-02T04:28:18.771Z,5.6019
2023-04-02T04:29:20.819Z,4.6670
2023-04-02T04:30:22.838Z,6.3012
2023-04-02T04:31:25.992Z,5.7196
2023-04-02T04:32:28.183Z,4.9236
2023-04-02T04:33:30.235Z,4.7234
2023-04-02T04:34:32.303Z,6.4135
2023-04-02T04:35:34.616Z,7.8766
2023-04-02T04:36:36.919Z,8.8542
2023-04-02T04:37:39.334Z,9.5087
2023-04-02T04:38:42.164Z,6.9360
2023-04-02T04:39:44.430Z,4.9392
2023-04-02T04:40:46.465Z,4.9008
2023-04-02T04:41:48.486Z,5.3111
2023-04-02T04:42:50.514Z,5.7200
2023-04-02T04:43:52.602Z,8.6351
2023-04-02T04:44:54.846Z,6.0468
2023-04-02T04:45:56.920Z,5.5996
2023-04-02T04:46:58.987Z,5.4815
2023-04-02T04:48:01.080Z,7.8732
2023-04-02T04:49:03.164Z,5.6006
2023-04-02T04:50:05.247Z,6.2937
2023-04-02T04:51:07.309Z,4.9570
2023-04-02T04:52:09.410Z,5.0739
2023-04-02T04:53:11.487Z,5.0728
2023-04-02T04:54:13.578Z,6.9987
2023-04-02T04:55:15.940Z,5.6536
2023-04-02T04:56:19.609Z,8.0732
2023-04-02T04:57:18.654Z,7.4153
2023-04-02T04:58:20.778Z,8.2576
2023-04-02T04:59:23.162Z,9.2383
2023-04-02T05:00:25.183Z,7.9883
2023-04-02T05:01:27.388Z,10.1471
2023-04-02T05:02:29.518Z,7.1568
2023-04-02T05:03:31.547Z,8.6895
2023-04-02T05:04:33.915Z,9.0082
2023-04-02T05:05:36.208Z,9.1491
2023-04-02T05:06:38.485Z,9.1547
2023-04-02T05:07:40.609Z,7.2249
2023-04-02T05:08:42.706Z,9.1527
2023-04-02T05:09:44.826Z,4.6642
2023-04-02T05:10:46.904Z,8.1019
2023-04-02T05:11:49.005Z,7.7537
2023-04-02T05:12:51.311Z,6.7398
2023-04-02T05:13:53.405Z,6.5882
2023-04-02T05:14:55.755Z,8.5992
2023-04-02T05:15:59.444Z,9.0907
2023-04-02T05:16:59.579Z,7.8575
2023-04-02T05:18:01.691Z,6.4731
2023-04-02T05:19:03.817Z,13.6336
2023-04-02T05:20:05.936Z,13.7581
2023-04-02T05:21:07.979Z,13.9943
2023-04-02T05:22:10.081Z,9.2702
2023-04-02T05:23:12.214Z,6.3535
2023-04-02T05:24:14.293Z,11.3678
2023-04-02T05:25:16.420Z,8.9766
2023-04-02T05:26:18.520Z,6.4100
2023-04-02T05:27:20.615Z,6.5299
2023-04-02T05:28:22.725Z,6.7044
2023-04-02T05:29:24.834Z,6.6434
2023-04-02T05:30:26.994Z,5.7140
2023-04-02T05:31:29.142Z,5.9410
2023-04-02T05:32:31.258Z,7.8652
2023-04-02T05:33:33.348Z,3.3799
2023-04-02T05:34:35.462Z,7.9270
2023-04-02T05:35:37.961Z,7.0531
2023-04-02T05:36:40.235Z,7.3345
2023-04-02T05:37:42.345Z,7.1133
2023-04-02T05:38:44.452Z,8.1617
2023-04-02T05:39:46.612Z,7.8054
2023-04-02T05:40:48.663Z,7.6962
2023-04-02T05:41:50.735Z,7.5218
2023-04-02T05:42:52.865Z,4.9000
2023-04-02T05:43:54.914Z,6.2946
2023-04-02T05:44:57.004Z,4.5484
2023-04-02T05:45:59.081Z,4.1994
2023-04-02T05:47:01.255Z,3.3228
2023-04-02T05:48:03.366Z,5.8252
2023-04-02T05:49:05.393Z,4.8407
2023-04-02T05:50:07.493Z,2.5662
2023-04-02T05:51:09.650Z,7.6374
2023-04-02T05:52:11.763Z,6.9831
2023-04-02T05:53:13.836Z,3.0917
2023-04-02T05:54:15.893Z,2.3918
2023-04-02T05:55:17.963Z,2.9162
2023-04-02T05:56:20.093Z,3.0324
2023-04-02T05:57:29.579Z,5.1294
2023-04-02T05:58:35.450Z,3.5522
2023-04-02T05:59:24.443Z,3.7312
2023-04-02T06:00:26.511Z,6.5329
2023-04-02T06:01:28.620Z,6.0648
2023-04-02T06:02:31.283Z,6.0374
2023-04-02T06:03:33.501Z,5.4471
2023-04-02T06:04:35.616Z,2.0959
2023-04-02T06:05:37.835Z,3.0903
2023-04-02T06:06:39.986Z,2.5593
2023-04-02T06:07:42.082Z,3.4955
2023-04-02T06:08:44.179Z,3.6736
2023-04-02T06:09:46.249Z,3.4974
2023-04-02T06:10:48.358Z,3.7916
2023-04-02T06:11:50.533Z,1.7482
2023-04-02T06:12:52.574Z,2.2144
2023-04-02T06:13:54.658Z,3.5576
2023-04-02T06:14:56.995Z,4.2993
2023-04-02T06:15:59.090Z,6.5272
2023-04-02T06:17:01.309Z,6.5877
2023-04-02T06:18:03.485Z,5.1794
2023-04-02T06:19:05.618Z,2.9114
2023-04-02T06:20:07.722Z,3.1462
2023-04-02T06:21:09.814Z,3.1488
2023-04-02T06:22:11.987Z,4.3136
2023-04-02T06:23:14.140Z,2.1536
2023-04-02T06:24:16.241Z,2.6804
2023-04-02T06:25:18.352Z,5.0134
2023-04-02T06:26:20.445Z,5.2467
2023-04-02T06:27:22.573Z,1.1658
2023-04-02T06:28:24.660Z,2.0986
2023-04-02T06:29:26.770Z,4.0806
2023-04-02T06:30:28.900Z,1.5741
2023-04-02T06:31:30.942Z,0.0583
2023-04-02T06:32:33.227Z,0.2332
2023-04-02T06:33:35.357Z,0.5813
2023-04-02T06:34:37.461Z,1.1068
2023-04-02T06:35:39.582Z,2.2742
2023-04-02T06:36:41.672Z,0.4663
2023-04-02T06:37:43.824Z,0.8743
2023-04-02T06:38:45.933Z,2.7959
2023-04-02T06:39:48.040Z,3.0316
2023-04-02T06:40:50.150Z,5.7123
2023-04-02T06:41:52.253Z,4.6036
2023-04-02T06:42:54.363Z,3.5570
2023-04-02T06:43:56.484Z,3.9045
2023-04-02T06:44:58.569Z,3.0897
2023-04-02T06:46:00.693Z,2.2728
2023-04-02T06:47:03.237Z,1.6824
2023-04-02T06:48:05.396Z,3.4319
2023-04-02T06:49:07.502Z,4.3658
2023-04-02T06:50:09.601Z,6.1243
2023-04-02T06:51:11.692Z,5.1319
2023-04-02T06:52:13.778Z,6.3547
2023-04-02T06:53:15.937Z,6.4684
2023-04-02T06:54:18.032Z,8.6215
2023-04-02T06:55:20.163Z,7.2881
2023-04-02T06:56:22.253Z,7.5184
2023-04-02T06:57:24.417Z,7.6334
2023-04-02T06:58:26.530Z,9.9632
2023-04-02T06:59:28.657Z,12.4107
2023-04-02T07:00:30.747Z,11.3614
2023-04-02T07:01:32.871Z,9.7389
2023-04-02T07:02:35.044Z,9.5592
2023-04-02T07:03:37.203Z,10.7008
2023-04-02T07:04:39.351Z,8.7437
2023-04-02T07:05:42.964Z,12.8130
2023-04-02T07:06:41.726Z,14.2297
2023-04-02T07:07:43.806Z,12.0769
2023-04-02T07:08:45.942Z,7.9876
2023-04-02T07:09:48.049Z,8.6804
2023-04-02T07:10:50.108Z,12.7665
2023-04-02T07:11:52.200Z,13.3578
2023-04-02T07:12:54.287Z,10.7878
2023-04-02T07:13:56.368Z,6.5298
2023-04-02T07:14:58.450Z,7.1128
2023-04-02T07:16:00.598Z,8.6912
2023-04-02T07:17:02.929Z,9.8060
2023-04-02T07:18:05.018Z,11.6056
2023-04-02T07:19:07.265Z,11.1645
2023-04-02T07:20:09.342Z,8.9778
2023-04-02T07:21:11.397Z,8.0499
2023-04-02T07:22:13.493Z,6.7651
2023-04-02T07:23:17.037Z,9.0383
2023-04-02T07:24:15.790Z,7.2213
2023-04-02T07:25:17.908Z,5.3620
2023-04-02T07:26:20.265Z,9.7494
2023-04-02T07:27:22.357Z,5.7117
2023-04-02T07:28:24.506Z,6.0621
2023-04-02T07:29:26.643Z,8.3909
2023-04-02T07:30:28.763Z,9.9041
2023-04-02T07:31:30.941Z,10.7206
2023-04-02T07:32:33.071Z,9.6702
2023-04-02T07:33:35.142Z,9.9651
2023-04-02T07:34:35.379Z,7.8749
2023-04-02T07:35:37.797Z,4.7804
2023-04-02T07:36:40.050Z,9.4918
2023-04-02T07:37:42.156Z,10.9518
2023-04-02T07:38:44.235Z,16.0351
2023-04-02T07:39:46.389Z,9.7917
2023-04-02T07:40:48.490Z,8.7391
2023-04-02T07:41:50.613Z,9.9100
2023-04-02T07:42:52.748Z,11.0713
2023-04-02T07:43:54.825Z,11.0759
2023-04-02T07:44:56.979Z,10.1470
2023-04-02T07:45:59.086Z,7.3943
2023-04-02T07:47:01.373Z,7.9274
2023-04-02T07:48:03.681Z,5.8072
2023-04-02T07:49:05.844Z,6.4509
2023-04-02T07:50:07.962Z,9.3258
2023-04-02T07:51:10.106Z,6.3516
2023-04-02T07:52:12.230Z,4.6034
2023-04-02T07:53:14.294Z,8.3357
2023-04-02T07:54:16.397Z,13.4664
2023-04-02T07:55:18.502Z,15.1556
2023-04-02T07:56:20.625Z,12.0677
2023-04-02T07:57:22.735Z,10.4893
2023-04-02T07:58:24.812Z,7.4023
2023-04-02T07:59:26.885Z,7.5239
2023-04-02T08:00:30.514Z,11.6081
2023-04-02T08:01:29.355Z,17.6804
2023-04-02T08:02:31.528Z,15.9213
2023-04-02T08:03:33.754Z,10.7621
2023-04-02T08:04:35.874Z,15.4742
2023-04-02T08:05:38.283Z,15.5146
2023-04-02T08:06:40.348Z,15.3809
2023-04-02T08:07:42.434Z,13.0028
2023-04-02T08:08:44.545Z,11.7164
2023-04-02T08:09:46.721Z,14.0462
2023-04-02T08:10:48.871Z,14.9011
2023-04-02T08:11:51.184Z,15.4464
2023-04-02T08:12:53.264Z,7.4632
2023-04-02T08:13:55.364Z,10.6125
2023-04-02T08:14:57.443Z,18.8339
2023-04-02T08:15:59.576Z,8.5152
2023-04-02T08:17:01.700Z,9.6731
2023-04-02T08:18:03.820Z,14.9135
2023-04-02T08:19:05.865Z,12.6527
2023-04-02T08:20:07.978Z,6.2410
2023-04-02T08:21:10.157Z,7.7528
2023-04-02T08:22:12.161Z,4.9516
2023-04-02T08:23:14.239Z,9.0413
2023-04-02T08:24:16.364Z,11.0784
2023-04-02T08:25:18.504Z,12.3588
2023-04-02T08:26:20.628Z,12.8188
2023-04-02T08:27:22.690Z,9.6767
2023-04-02T08:28:24.786Z,5.8302
2023-04-02T08:29:26.858Z,5.4808
2023-04-02T08:30:29.012Z,5.0153
2023-04-02T08:31:31.101Z,10.9563
2023-04-02T08:32:33.261Z,8.5069
2023-04-02T08:33:35.366Z,12.1775
2023-04-02T08:34:37.473Z,11.0123
2023-04-02T08:35:39.776Z,11.7187
2023-04-02T08:36:42.154Z,14.6377
2023-04-02T08:37:44.246Z,10.7820
2023-04-02T08:38:46.351Z,10.7263
2023-04-02T08:39:48.453Z,7.6384
2023-04-02T08:40:50.576Z,11.3095
2023-04-02T08:41:52.690Z,9.0311
2023-04-02T08:42:54.787Z,10.2603
2023-04-02T08:43:56.887Z,16.0913
2023-04-02T08:44:58.984Z,15.0356
2023-04-02T08:46:01.344Z,17.3671
2023-04-02T08:47:03.453Z,18.0666
2023-04-02T08:48:05.601Z,18.7125
2023-04-02T08:49:07.733Z,14.2725
2023-04-02T08:50:09.824Z,12.2902
2023-04-02T08:51:11.950Z,12.3582
2023-04-02T08:52:14.075Z,14.9193
2023-04-02T08:53:16.205Z,13.1707
2023-04-02T08:54:18.317Z,9.3238
2023-04-02T08:55:20.422Z,10.7239
2023-04-02T08:56:22.558Z,13.6963
2023-04-02T08:57:24.736Z,17.5413
2023-04-02T08:58:27.026Z,17.3510
2023-04-02T08:59:29.146Z,14.9258
2023-04-02T09:00:31.296Z,10.3769
2023-04-02T09:01:33.396Z,7.0464
2023-04-02T09:02:35.584Z,10.3729
2023-04-02T09:03:37.708Z,10.7708
2023-04-02T09:04:39.901Z,12.3534
2023-04-02T09:05:42.149Z,17.6447
2023-04-02T09:06:44.213Z,13.0342
2023-04-02T09:07:46.377Z,11.2497
2023-04-02T09:08:46.791Z,18.7968
2023-04-02T09:09:49.033Z,6.8208
2023-04-02T09:10:51.153Z,18.4927
2023-04-02T09:11:53.302Z,15.0327
2023-04-02T09:12:55.430Z,15.1529
2023-04-02T09:13:57.600Z,15.1434
2023-04-02T09:14:59.725Z,8.2729
2023-04-02T09:16:01.936Z,7.7483
2023-04-02T09:17:04.080Z,12.5722
2023-04-02T09:18:06.202Z,13.9238
2023-04-02T09:19:08.300Z,11.9473
2023-04-02T09:20:10.408Z,16.0841
2023-04-02T09:21:12.530Z,19.4669
2023-04-02T09:22:14.644Z,12.1808
2023-04-02T09:23:16.775Z,10.8447
2023-04-02T09:24:18.865Z,9.6714
2023-04-02T09:25:20.983Z,12.5926
2023-04-02T09:26:23.108Z,12.8190
2023-04-02T09:27:25.196Z,12.4185
2023-04-02T09:28:27.302Z,13.2909
2023-04-02T09:29:29.410Z,13.2322
2023-04-02T09:30:31.511Z,19.0626
2023-04-02T09:31:33.887Z,24.6264
2023-04-02T09:32:36.055Z,20.3232
2023-04-02T09:33:38.196Z,15.9603
2023-04-02T09:34:40.294Z,18.6452
2023-04-02T09:35:42.542Z,23.7281
2023-04-02T09:36:44.757Z,19.5592
2023-04-02T09:37:46.872Z,26.8111
2023-04-02T09:38:48.982Z,15.0431
2023-04-02T09:39:51.127Z,13.9799
2023-04-02T09:40:53.214Z,17.6629
2023-04-02T09:42:04.962Z,15.9136
2023-04-02T09:42:56.440Z,18.2404
2023-04-02T09:43:58.613Z,17.3653
2023-04-02T09:45:00.712Z,20.9715
2023-04-02T09:46:02.808Z,19.1190
2023-04-02T09:47:05.017Z,20.3467
2023-04-02T09:48:07.259Z,15.6990
2023-04-02T09:49:09.378Z,12.1696
2023-04-02T09:50:11.510Z,8.5066
2023-04-02T09:51:13.615Z,9.0313
2023-04-02T09:52:15.725Z,16.2100
2023-04-02T09:53:17.812Z,14.0413
2023-04-02T09:54:19.929Z,13.1798
2023-04-02T09:55:22.026Z,13.2305
2023-04-02T09:56:24.340Z,9.6458
2023-04-02T09:57:26.461Z,12.0669
2023-04-02T09:58:28.545Z,13.2311
2023-04-02T09:59:30.644Z,12.8266
2023-04-02T10:00:32.952Z,17.1377
2023-04-02T10:01:35.252Z,16.3884
2023-04-02T10:02:37.655Z,17.8315
2023-04-02T10:03:39.804Z,14.7118
2023-04-02T10:04:41.968Z,10.7881
2023-04-02T10:05:44.319Z,12.2774
2023-04-02T10:06:46.487Z,12.1855
2023-04-02T10:07:48.548Z,13.5898
2023-04-02T10:08:50.654Z,7.7544
2023-04-02T10:09:52.737Z,12.4235
2023-04-02T10:10:55.132Z,11.7166
2023-04-02T10:11:57.206Z,10.5554
2023-04-02T10:12:59.290Z,10.7317
2023-04-02T10:14:01.407Z,13.3492
2023-04-02T10:15:03.596Z,11.7170
2023-04-02T10:16:05.838Z,8.3262
2023-04-02T10:17:08.022Z,8.0809
2023-04-02T10:18:10.145Z,8.9658
2023-04-02T10:19:12.250Z,12.2412
2023-04-02T10:20:14.426Z,6.7598
2023-04-02T10:21:14.867Z,10.8369
2023-04-02T10:22:16.989Z,7.1076
2023-04-02T10:23:19.353Z,10.3363
2023-04-02T10:24:21.432Z,18.4154
2023-04-02T10:25:23.563Z,16.2647
2023-04-02T10:26:25.705Z,16.9525
2023-04-02T10:27:27.801Z,15.1512
2023-04-02T10:28:30.276Z,17.9204
2023-04-02T10:29:32.410Z,13.7455
2023-04-02T10:30:34.553Z,16.3190
2023-04-02T10:31:36.716Z,18.0527
2023-04-02T10:32:38.831Z,13.5180
2023-04-02T10:33:41.034Z,10.4906
2023-04-02T10:34:43.342Z,12.3368
2023-04-02T10:35:45.543Z,6.9708
2023-04-02T10:36:47.652Z,6.8108
2023-04-02T10:37:49.772Z,13.4043
2023-04-02T10:38:51.888Z,15.0332
2023-04-02T10:39:54.015Z,15.3905
2023-04-02T10:40:57.025Z,20.9725
2023-04-02T10:41:59.186Z,20.3899
2023-04-02T10:43:01.324Z,19.9293
2023-04-02T10:44:16.654Z,13.5763
2023-04-02T10:45:04.639Z,15.1445
2023-04-02T10:46:06.807Z,10.1974
2023-04-02T10:47:08.899Z,18.8725
2023-04-02T10:48:11.084Z,10.3173
2023-04-02T10:49:13.197Z,7.8610
2023-04-02T10:50:15.245Z,6.1222
2023-04-02T10:51:17.397Z,5.5965
2023-04-02T10:52:19.468Z,7.9250
2023-04-02T10:53:21.642Z,3.7900
2023-04-02T10:54:23.721Z,8.5037
2023-04-02T10:55:25.833Z,18.6503
2023-04-02T10:56:29.809Z,13.8790
2023-04-02T10:57:29.159Z,20.8842
2023-04-02T10:58:31.226Z,17.7169
2023-04-02T10:59:33.297Z,11.3707
2023-04-02T11:00:35.457Z,11.7128
2023-04-02T11:01:37.655Z,5.8237
2023-04-02T11:02:39.874Z,13.2661
2023-04-02T11:03:42.190Z,10.4819
2023-04-02T11:04:44.370Z,7.0240
2023-04-02T11:05:46.559Z,10.1274
2023-04-02T11:06:48.699Z,10.0814
2023-04-02T11:07:50.836Z,5.8259
2023-04-02T11:08:52.962Z,4.7754
2023-04-02T11:09:55.126Z,12.4157
2023-04-02T11:10:57.294Z,10.3661
2023-04-02T11:11:59.410Z,11.6538
2023-04-02T11:13:01.754Z,8.1233
2023-04-02T11:14:03.929Z,7.6337
2023-04-02T11:15:06.026Z,14.0986
2023-04-02T11:16:08.224Z,11.8894
2023-04-02T11:17:10.356Z,10.4235
2023-04-02T11:18:12.473Z,10.1344
2023-04-02T11:19:14.624Z,7.2839
2023-04-02T11:20:16.771Z,8.4456
2023-04-02T11:21:18.913Z,11.8303
2023-04-02T11:22:21.082Z,8.0941
2023-04-02T11:23:23.219Z,10.6583
2023-04-02T11:24:25.378Z,6.6400
2023-04-02T11:25:27.774Z,7.2549
2023-04-02T11:26:29.909Z,9.1446
2023-04-02T11:27:32.063Z,8.9703
2023-04-02T11:28:34.271Z,5.7661
2023-04-02T11:29:36.422Z,5.5879
2023-04-02T11:30:38.552Z,11.5916
2023-04-02T11:31:40.777Z,6.9884
2023-04-02T11:32:43.168Z,6.2827
2023-04-02T11:33:47.364Z,15.6701
2023-04-02T11:34:56.387Z,16.5885
2023-04-02T11:35:48.734Z,7.5732
2023-04-02T11:36:50.884Z,0.8153
2023-04-02T11:37:53.063Z,0.0000
2023-04-02T11:38:59.635Z,0.1747
2023-04-02T11:39:56.398Z,2.2485
2023-04-02T11:40:58.546Z,1.9804
2023-04-02T11:42:00.714Z,6.1753
2023-04-02T11:43:02.900Z,7.5667
2023-04-02T11:44:05.018Z,6.3475
2023-04-02T11:45:07.196Z,5.3598
2023-04-02T11:46:09.341Z,8.0965
2023-04-02T11:47:11.479Z,14.6819
2023-04-02T11:48:13.651Z,7.5131
2023-04-02T11:49:15.979Z,4.4720
2023-04-02T11:50:18.228Z,6.3389
2023-04-02T11:51:21.329Z,9.0538
2023-04-02T11:52:23.810Z,6.5855
2023-04-02T11:53:25.951Z,6.8166
2023-04-02T11:54:28.083Z,7.3974
2023-04-02T11:55:30.212Z,3.7869
2023-04-02T11:56:32.324Z,3.9630
2023-04-02T11:57:34.577Z,1.8069
2023-04-02T11:58:36.772Z,7.6156
2023-04-02T11:59:38.915Z,8.2680
2023-04-02T12:00:41.326Z,3.4232
2023-04-02T12:01:43.455Z,8.9746
2023-04-02T12:02:45.716Z,10.6590
2023-04-02T12:03:47.874Z,7.5575
2023-04-02T12:04:49.996Z,11.3024
2023-04-02T12:05:52.117Z,12.2357
2023-04-02T12:06:54.266Z,12.8159
2023-04-02T12:07:56.438Z,9.3211
2023-04-02T12:08:58.580Z,10.2519
2023-04-02T12:10:00.724Z,6.2320
2023-04-02T12:11:02.876Z,6.4069
2023-04-02T12:12:04.991Z,5.0117
2023-04-02T12:13:07.151Z,4.9518
2023-04-02T12:14:09.313Z,7.0472
2023-04-02T12:15:11.540Z,7.8597
2023-04-02T12:16:13.694Z,5.2946
2023-04-02T12:17:15.884Z,2.9135
2023-04-02T12:18:18.018Z,7.5714
2023-04-02T12:19:20.195Z,7.5112
2023-04-02T12:20:22.335Z,8.3843
2023-04-02T12:21:24.465Z,9.2661
2023-04-02T12:22:26.856Z,10.9082
2023-04-02T12:23:28.977Z,11.8269
2023-04-02T12:24:31.141Z,12.2934
2023-04-02T12:25:33.310Z,10.2527
2023-04-02T12:26:35.442Z,4.0200
2023-04-02T12:27:37.651Z,7.1033
2023-04-02T12:28:39.791Z,11.5267
2023-04-02T12:29:41.915Z,10.8954
2023-04-02T12:30:44.201Z,7.3972
2023-04-02T12:31:46.321Z,5.2919
2023-04-02T12:32:48.448Z,5.0102
2023-04-02T12:33:50.543Z,3.2057
2023-04-02T12:34:52.709Z,4.3125
2023-04-02T12:35:54.853Z,4.9528
2023-04-02T12:36:56.989Z,2.2130
2023-04-02T12:37:59.157Z,4.8894
2023-04-02T12:39:01.272Z,10.7246
2023-04-02T12:40:03.409Z,11.8898
2023-04-02T12:41:05.507Z,8.6820
2023-04-02T12:42:07.641Z,7.8662
2023-04-02T12:43:09.971Z,5.1121
2023-04-02T12:44:12.073Z,4.1966
2023-04-02T12:45:14.201Z,3.7886
2023-04-02T12:46:16.416Z,7.9830
2023-04-02T12:47:18.534Z,6.8060
2023-04-02T12:48:20.659Z,3.9053
2023-04-02T12:49:22.800Z,5.6516
2023-04-02T12:50:24.971Z,3.4370
2023-04-02T12:51:28.344Z,3.4959
2023-04-02T12:52:27.140Z,3.7982
2023-04-02T12:53:29.276Z,2.7963
2023-04-02T12:54:31.441Z,3.8450
2023-04-02T12:55:33.554Z,2.3300
2023-04-02T12:56:35.672Z,0.8742
2023-04-02T12:57:37.977Z,3.4382
2023-04-02T12:58:40.129Z,4.3555
2023-04-02T12:59:42.255Z,1.4569
2023-04-02T13:00:44.433Z,3.3798
2023-04-02T13:01:46.608Z,3.7845
2023-04-02T13:02:48.740Z,0.0583
2023-04-02T13:03:50.945Z,3.8436
2023-04-02T13:04:53.126Z,4.8868